Terminal Aerodrome Forecast
Issued by NWS

Home | Current Version | Previous Version | Text Only | Print | Product List | Glossary On
Versions: 1 2 3 4 5 6 7 8 9 10 11 12 13 14 15 16
340
FTUS41 KCLE 191740
TAFFDY
TAF
KFDY 191740Z 1918/2018 26010KT P6SM SKC
     FM200000 34005KT P6SM SKC
     FM200800 09003KT 3SM BR SKC
     FM201100 09003KT 1SM BR SCT003
     FM201400 09005KT 3SM BR SKC
     FM201500 11007KT P6SM SCT250=

USA.gov is the U.S. government's official web portal to all federal, state and local government web resources and services.